<?xml version="1.0" encoding="UTF-8"?>
<gpx version="1.0" creator="GPSBabel - http://www.gpsbabel.org" xmlns="http://www.topografix.com/GPX/1/0">
  <time>2019-05-26T21:43:31.230Z</time>
  <bounds minlat="35.707942250" minlon="-105.904565020" maxlat="35.711966110" maxlon="-105.899358420"/>
  <trk>
    <name>Dale Ball Loop North.Pat.2019-05-23</name>
    <trkseg>
      <trkpt lat="35.710551930" lon="-105.899684230">
        <ele>2299.000</ele>
        <time>2019-05-23T18:01:22Z</time>
      </trkpt>
      <trkpt lat="35.710580580" lon="-105.899653860">
        <ele>2298.000</ele>
        <time>2019-05-23T18:01:24Z</time>
      </trkpt>
      <trkpt lat="35.710576800" lon="-105.899604500">
        <ele>2301.000</ele>
        <time>2019-05-23T18:01:27Z</time>
      </trkpt>
      <trkpt lat="35.710545760" lon="-105.899572650">
        <ele>2296.000</ele>
        <time>2019-05-23T18:02:02Z</time>
      </trkpt>
      <trkpt lat="35.710518430" lon="-105.899535150">
        <ele>2296.000</ele>
        <time>2019-05-23T18:02:05Z</time>
      </trkpt>
      <trkpt lat="35.710495360" lon="-105.899499670">
        <ele>2296.000</ele>
        <time>2019-05-23T18:02:08Z</time>
      </trkpt>
      <trkpt lat="35.710464540" lon="-105.899452860">
        <ele>2298.000</ele>
        <time>2019-05-23T18:02:12Z</time>
      </trkpt>
      <trkpt lat="35.710434330" lon="-105.899414350">
        <ele>2298.000</ele>
        <time>2019-05-23T18:02:16Z</time>
      </trkpt>
      <trkpt lat="35.710408340" lon="-105.899382410">
        <ele>2298.000</ele>
        <time>2019-05-23T18:02:20Z</time>
      </trkpt>
      <trkpt lat="35.710445600" lon="-105.899358420">
        <ele>2297.000</ele>
        <time>2019-05-23T18:03:29Z</time>
      </trkpt>
      <trkpt lat="35.710431120" lon="-105.899401790">
        <ele>2298.000</ele>
        <time>2019-05-23T18:03:38Z</time>
      </trkpt>
      <trkpt lat="35.710428300" lon="-105.899459480">
        <ele>2297.000</ele>
        <time>2019-05-23T18:03:42Z</time>
      </trkpt>
      <trkpt lat="35.710436300" lon="-105.899506930">
        <ele>2296.000</ele>
        <time>2019-05-23T18:03:46Z</time>
      </trkpt>
      <trkpt lat="35.710422350" lon="-105.899557510">
        <ele>2295.000</ele>
        <time>2019-05-23T18:03:50Z</time>
      </trkpt>
      <trkpt lat="35.710427130" lon="-105.899603710">
        <ele>2295.000</ele>
        <time>2019-05-23T18:03:55Z</time>
      </trkpt>
      <trkpt lat="35.710427890" lon="-105.899654340">
        <ele>2296.000</ele>
        <time>2019-05-23T18:04:01Z</time>
      </trkpt>
      <trkpt lat="35.710431350" lon="-105.899704230">
        <ele>2295.000</ele>
        <time>2019-05-23T18:04:07Z</time>
      </trkpt>
      <trkpt lat="35.710427450" lon="-105.899755180">
        <ele>2295.000</ele>
        <time>2019-05-23T18:04:11Z</time>
      </trkpt>
      <trkpt lat="35.710428880" lon="-105.899801360">
        <ele>2294.000</ele>
        <time>2019-05-23T18:04:15Z</time>
      </trkpt>
      <trkpt lat="35.710446080" lon="-105.899852210">
        <ele>2292.000</ele>
        <time>2019-05-23T18:04:19Z</time>
      </trkpt>
      <trkpt lat="35.710451260" lon="-105.899902900">
        <ele>2292.000</ele>
        <time>2019-05-23T18:04:24Z</time>
      </trkpt>
      <trkpt lat="35.710437400" lon="-105.899954100">
        <ele>2293.000</ele>
        <time>2019-05-23T18:04:29Z</time>
      </trkpt>
      <trkpt lat="35.710402750" lon="-105.899998310">
        <ele>2292.000</ele>
        <time>2019-05-23T18:04:34Z</time>
      </trkpt>
      <trkpt lat="35.710377330" lon="-105.900032070">
        <ele>2293.000</ele>
        <time>2019-05-23T18:04:38Z</time>
      </trkpt>
      <trkpt lat="35.710335350" lon="-105.900020770">
        <ele>2294.000</ele>
        <time>2019-05-23T18:04:44Z</time>
      </trkpt>
      <trkpt lat="35.710295940" lon="-105.900024440">
        <ele>2294.000</ele>
        <time>2019-05-23T18:04:49Z</time>
      </trkpt>
      <trkpt lat="35.710254520" lon="-105.900022520">
        <ele>2292.000</ele>
        <time>2019-05-23T18:04:54Z</time>
      </trkpt>
      <trkpt lat="35.710221410" lon="-105.900040930">
        <ele>2290.000</ele>
        <time>2019-05-23T18:04:59Z</time>
      </trkpt>
      <trkpt lat="35.710184210" lon="-105.900091650">
        <ele>2287.000</ele>
        <time>2019-05-23T18:05:07Z</time>
      </trkpt>
      <trkpt lat="35.710162810" lon="-105.900134160">
        <ele>2286.000</ele>
        <time>2019-05-23T18:05:11Z</time>
      </trkpt>
      <trkpt lat="35.710120830" lon="-105.900132080">
        <ele>2289.000</ele>
        <time>2019-05-23T18:05:14Z</time>
      </trkpt>
      <trkpt lat="35.710081560" lon="-105.900126650">
        <ele>2290.000</ele>
        <time>2019-05-23T18:05:17Z</time>
      </trkpt>
      <trkpt lat="35.710047030" lon="-105.900142370">
        <ele>2290.000</ele>
        <time>2019-05-23T18:05:21Z</time>
      </trkpt>
      <trkpt lat="35.710011220" lon="-105.900151400">
        <ele>2290.000</ele>
        <time>2019-05-23T18:05:26Z</time>
      </trkpt>
      <trkpt lat="35.709950250" lon="-105.900171770">
        <ele>2291.000</ele>
        <time>2019-05-23T18:05:32Z</time>
      </trkpt>
      <trkpt lat="35.709922090" lon="-105.900208750">
        <ele>2292.000</ele>
        <time>2019-05-23T18:05:35Z</time>
      </trkpt>
      <trkpt lat="35.709903420" lon="-105.900249140">
        <ele>2292.000</ele>
        <time>2019-05-23T18:05:40Z</time>
      </trkpt>
      <trkpt lat="35.709883400" lon="-105.900294130">
        <ele>2293.000</ele>
        <time>2019-05-23T18:05:45Z</time>
      </trkpt>
      <trkpt lat="35.709870310" lon="-105.900341820">
        <ele>2293.000</ele>
        <time>2019-05-23T18:05:49Z</time>
      </trkpt>
      <trkpt lat="35.709842650" lon="-105.900381240">
        <ele>2295.000</ele>
        <time>2019-05-23T18:05:53Z</time>
      </trkpt>
      <trkpt lat="35.709807440" lon="-105.900393200">
        <ele>2294.000</ele>
        <time>2019-05-23T18:05:57Z</time>
      </trkpt>
      <trkpt lat="35.709768980" lon="-105.900394750">
        <ele>2293.000</ele>
        <time>2019-05-23T18:06:01Z</time>
      </trkpt>
      <trkpt lat="35.709724320" lon="-105.900378250">
        <ele>2294.000</ele>
        <time>2019-05-23T18:06:05Z</time>
      </trkpt>
      <trkpt lat="35.709684440" lon="-105.900373330">
        <ele>2293.000</ele>
        <time>2019-05-23T18:06:10Z</time>
      </trkpt>
      <trkpt lat="35.709648800" lon="-105.900363960">
        <ele>2294.000</ele>
        <time>2019-05-23T18:06:15Z</time>
      </trkpt>
      <trkpt lat="35.709606080" lon="-105.900348360">
        <ele>2294.000</ele>
        <time>2019-05-23T18:06:20Z</time>
      </trkpt>
      <trkpt lat="35.709572730" lon="-105.900381000">
        <ele>2292.000</ele>
        <time>2019-05-23T18:06:25Z</time>
      </trkpt>
      <trkpt lat="35.709531480" lon="-105.900410760">
        <ele>2292.000</ele>
        <time>2019-05-23T18:06:28Z</time>
      </trkpt>
      <trkpt lat="35.709500170" lon="-105.900437240">
        <ele>2294.000</ele>
        <time>2019-05-23T18:06:32Z</time>
      </trkpt>
      <trkpt lat="35.709457810" lon="-105.900465220">
        <ele>2297.000</ele>
        <time>2019-05-23T18:06:36Z</time>
      </trkpt>
      <trkpt lat="35.709423500" lon="-105.900479570">
        <ele>2298.000</ele>
        <time>2019-05-23T18:06:41Z</time>
      </trkpt>
      <trkpt lat="35.709381030" lon="-105.900503070">
        <ele>2297.000</ele>
        <time>2019-05-23T18:06:46Z</time>
      </trkpt>
      <trkpt lat="35.709335770" lon="-105.900520460">
        <ele>2298.000</ele>
        <time>2019-05-23T18:06:50Z</time>
      </trkpt>
      <trkpt lat="35.709295150" lon="-105.900538390">
        <ele>2299.000</ele>
        <time>2019-05-23T18:06:54Z</time>
      </trkpt>
      <trkpt lat="35.709256160" lon="-105.900563550">
        <ele>2299.000</ele>
        <time>2019-05-23T18:06:58Z</time>
      </trkpt>
      <trkpt lat="35.709219280" lon="-105.900589280">
        <ele>2299.000</ele>
        <time>2019-05-23T18:07:02Z</time>
      </trkpt>
      <trkpt lat="35.709187920" lon="-105.900629510">
        <ele>2299.000</ele>
        <time>2019-05-23T18:07:06Z</time>
      </trkpt>
      <trkpt lat="35.709171940" lon="-105.900669230">
        <ele>2299.000</ele>
        <time>2019-05-23T18:07:10Z</time>
      </trkpt>
      <trkpt lat="35.709159430" lon="-105.900710860">
        <ele>2300.000</ele>
        <time>2019-05-23T18:07:14Z</time>
      </trkpt>
      <trkpt lat="35.709164070" lon="-105.900763730">
        <ele>2300.000</ele>
        <time>2019-05-23T18:07:19Z</time>
      </trkpt>
      <trkpt lat="35.709171590" lon="-105.900810050">
        <ele>2298.000</ele>
        <time>2019-05-23T18:07:24Z</time>
      </trkpt>
      <trkpt lat="35.709186330" lon="-105.900859600">
        <ele>2297.000</ele>
        <time>2019-05-23T18:07:29Z</time>
      </trkpt>
      <trkpt lat="35.709203040" lon="-105.900911840">
        <ele>2299.000</ele>
        <time>2019-05-23T18:07:33Z</time>
      </trkpt>
      <trkpt lat="35.709225670" lon="-105.900948440">
        <ele>2301.000</ele>
        <time>2019-05-23T18:07:37Z</time>
      </trkpt>
      <trkpt lat="35.709252650" lon="-105.900982000">
        <ele>2302.000</ele>
        <time>2019-05-23T18:07:40Z</time>
      </trkpt>
      <trkpt lat="35.709282410" lon="-105.901032820">
        <ele>2302.000</ele>
        <time>2019-05-23T18:07:44Z</time>
      </trkpt>
      <trkpt lat="35.709311440" lon="-105.901062740">
        <ele>2304.000</ele>
        <time>2019-05-23T18:07:49Z</time>
      </trkpt>
      <trkpt lat="35.709352110" lon="-105.901091780">
        <ele>2306.000</ele>
        <time>2019-05-23T18:07:54Z</time>
      </trkpt>
      <trkpt lat="35.709388310" lon="-105.901107990">
        <ele>2306.000</ele>
        <time>2019-05-23T18:07:58Z</time>
      </trkpt>
      <trkpt lat="35.709421500" lon="-105.901125660">
        <ele>2307.000</ele>
        <time>2019-05-23T18:08:01Z</time>
      </trkpt>
      <trkpt lat="35.709454840" lon="-105.901150170">
        <ele>2308.000</ele>
        <time>2019-05-23T18:08:07Z</time>
      </trkpt>
      <trkpt lat="35.709498920" lon="-105.901147130">
        <ele>2309.000</ele>
        <time>2019-05-23T18:08:11Z</time>
      </trkpt>
      <trkpt lat="35.709538520" lon="-105.901161130">
        <ele>2310.000</ele>
        <time>2019-05-23T18:08:15Z</time>
      </trkpt>
      <trkpt lat="35.709579620" lon="-105.901176380">
        <ele>2310.000</ele>
        <time>2019-05-23T18:08:19Z</time>
      </trkpt>
      <trkpt lat="35.709607410" lon="-105.901214740">
        <ele>2309.000</ele>
        <time>2019-05-23T18:08:25Z</time>
      </trkpt>
      <trkpt lat="35.709640920" lon="-105.901196920">
        <ele>2309.000</ele>
        <time>2019-05-23T18:09:25Z</time>
      </trkpt>
      <trkpt lat="35.709684530" lon="-105.901193990">
        <ele>2311.000</ele>
        <time>2019-05-23T18:09:29Z</time>
      </trkpt>
      <trkpt lat="35.709727540" lon="-105.901205090">
        <ele>2313.000</ele>
        <time>2019-05-23T18:09:33Z</time>
      </trkpt>
      <trkpt lat="35.709762180" lon="-105.901229290">
        <ele>2313.000</ele>
        <time>2019-05-23T18:09:37Z</time>
      </trkpt>
      <trkpt lat="35.709794720" lon="-105.901256700">
        <ele>2313.000</ele>
        <time>2019-05-23T18:09:41Z</time>
      </trkpt>
      <trkpt lat="35.709831360" lon="-105.901269880">
        <ele>2313.000</ele>
        <time>2019-05-23T18:09:45Z</time>
      </trkpt>
      <trkpt lat="35.709865550" lon="-105.901285100">
        <ele>2314.000</ele>
        <time>2019-05-23T18:09:49Z</time>
      </trkpt>
      <trkpt lat="35.709900090" lon="-105.901315600">
        <ele>2314.000</ele>
        <time>2019-05-23T18:09:53Z</time>
      </trkpt>
      <trkpt lat="35.709937550" lon="-105.901334150">
        <ele>2315.000</ele>
        <time>2019-05-23T18:09:57Z</time>
      </trkpt>
      <trkpt lat="35.709981870" lon="-105.901355540">
        <ele>2317.000</ele>
        <time>2019-05-23T18:10:02Z</time>
      </trkpt>
      <trkpt lat="35.710024280" lon="-105.901384850">
        <ele>2317.000</ele>
        <time>2019-05-23T18:10:09Z</time>
      </trkpt>
      <trkpt lat="35.710058740" lon="-105.901400160">
        <ele>2318.000</ele>
        <time>2019-05-23T18:10:15Z</time>
      </trkpt>
      <trkpt lat="35.710099970" lon="-105.901410890">
        <ele>2317.000</ele>
        <time>2019-05-23T18:10:20Z</time>
      </trkpt>
      <trkpt lat="35.710146450" lon="-105.901418550">
        <ele>2316.000</ele>
        <time>2019-05-23T18:10:27Z</time>
      </trkpt>
      <trkpt lat="35.710181170" lon="-105.901432190">
        <ele>2313.000</ele>
        <time>2019-05-23T18:10:31Z</time>
      </trkpt>
      <trkpt lat="35.710219730" lon="-105.901441280">
        <ele>2311.000</ele>
        <time>2019-05-23T18:10:36Z</time>
      </trkpt>
      <trkpt lat="35.710260060" lon="-105.901456470">
        <ele>2308.000</ele>
        <time>2019-05-23T18:10:40Z</time>
      </trkpt>
      <trkpt lat="35.710298930" lon="-105.901444500">
        <ele>2309.000</ele>
        <time>2019-05-23T18:10:44Z</time>
      </trkpt>
      <trkpt lat="35.710338140" lon="-105.901440940">
        <ele>2307.000</ele>
        <time>2019-05-23T18:10:49Z</time>
      </trkpt>
      <trkpt lat="35.710384830" lon="-105.901426840">
        <ele>2309.000</ele>
        <time>2019-05-23T18:10:53Z</time>
      </trkpt>
      <trkpt lat="35.710416860" lon="-105.901401170">
        <ele>2310.000</ele>
        <time>2019-05-23T18:10:56Z</time>
      </trkpt>
      <trkpt lat="35.710455840" lon="-105.901415540">
        <ele>2310.000</ele>
        <time>2019-05-23T18:11:01Z</time>
      </trkpt>
      <trkpt lat="35.710489690" lon="-105.901439270">
        <ele>2311.000</ele>
        <time>2019-05-23T18:11:06Z</time>
      </trkpt>
      <trkpt lat="35.710472580" lon="-105.901481720">
        <ele>2313.000</ele>
        <time>2019-05-23T18:11:15Z</time>
      </trkpt>
      <trkpt lat="35.710449370" lon="-105.901522080">
        <ele>2314.000</ele>
        <time>2019-05-23T18:11:26Z</time>
      </trkpt>
      <trkpt lat="35.710413700" lon="-105.901531230">
        <ele>2315.000</ele>
        <time>2019-05-23T18:11:31Z</time>
      </trkpt>
      <trkpt lat="35.710374000" lon="-105.901561340">
        <ele>2315.000</ele>
        <time>2019-05-23T18:11:37Z</time>
      </trkpt>
      <trkpt lat="35.710341980" lon="-105.901592150">
        <ele>2314.000</ele>
        <time>2019-05-23T18:11:41Z</time>
      </trkpt>
      <trkpt lat="35.710306860" lon="-105.901621660">
        <ele>2316.000</ele>
        <time>2019-05-23T18:11:45Z</time>
      </trkpt>
      <trkpt lat="35.710278870" lon="-105.901658080">
        <ele>2318.000</ele>
        <time>2019-05-23T18:11:49Z</time>
      </trkpt>
      <trkpt lat="35.710244080" lon="-105.901679050">
        <ele>2320.000</ele>
        <time>2019-05-23T18:11:52Z</time>
      </trkpt>
      <trkpt lat="35.710211960" lon="-105.901707090">
        <ele>2322.000</ele>
        <time>2019-05-23T18:11:56Z</time>
      </trkpt>
      <trkpt lat="35.710173860" lon="-105.901716910">
        <ele>2321.000</ele>
        <time>2019-05-23T18:12:01Z</time>
      </trkpt>
      <trkpt lat="35.710136000" lon="-105.901719870">
        <ele>2319.000</ele>
        <time>2019-05-23T18:12:06Z</time>
      </trkpt>
      <trkpt lat="35.710096020" lon="-105.901730760">
        <ele>2319.000</ele>
        <time>2019-05-23T18:12:12Z</time>
      </trkpt>
      <trkpt lat="35.710057900" lon="-105.901750560">
        <ele>2318.000</ele>
        <time>2019-05-23T18:12:17Z</time>
      </trkpt>
      <trkpt lat="35.710020670" lon="-105.901752650">
        <ele>2318.000</ele>
        <time>2019-05-23T18:12:23Z</time>
      </trkpt>
      <trkpt lat="35.709973390" lon="-105.901777330">
        <ele>2317.000</ele>
        <time>2019-05-23T18:12:29Z</time>
      </trkpt>
      <trkpt lat="35.709940800" lon="-105.901809190">
        <ele>2319.000</ele>
        <time>2019-05-23T18:12:32Z</time>
      </trkpt>
      <trkpt lat="35.709890010" lon="-105.901831830">
        <ele>2319.000</ele>
        <time>2019-05-23T18:12:37Z</time>
      </trkpt>
      <trkpt lat="35.709853500" lon="-105.901852190">
        <ele>2319.000</ele>
        <time>2019-05-23T18:12:41Z</time>
      </trkpt>
      <trkpt lat="35.709818430" lon="-105.901868000">
        <ele>2319.000</ele>
        <time>2019-05-23T18:12:45Z</time>
      </trkpt>
      <trkpt lat="35.709775590" lon="-105.901887430">
        <ele>2319.000</ele>
        <time>2019-05-23T18:12:51Z</time>
      </trkpt>
      <trkpt lat="35.709742770" lon="-105.901910040">
        <ele>2317.000</ele>
        <time>2019-05-23T18:12:55Z</time>
      </trkpt>
      <trkpt lat="35.709704590" lon="-105.901934330">
        <ele>2317.000</ele>
        <time>2019-05-23T18:12:59Z</time>
      </trkpt>
      <trkpt lat="35.709654740" lon="-105.901945620">
        <ele>2316.000</ele>
        <time>2019-05-23T18:13:04Z</time>
      </trkpt>
      <trkpt lat="35.709611630" lon="-105.901954910">
        <ele>2316.000</ele>
        <time>2019-05-23T18:13:09Z</time>
      </trkpt>
      <trkpt lat="35.709566070" lon="-105.901980530">
        <ele>2317.000</ele>
        <time>2019-05-23T18:13:13Z</time>
      </trkpt>
      <trkpt lat="35.709520310" lon="-105.902005440">
        <ele>2317.000</ele>
        <time>2019-05-23T18:13:17Z</time>
      </trkpt>
      <trkpt lat="35.709484780" lon="-105.902039670">
        <ele>2319.000</ele>
        <time>2019-05-23T18:13:20Z</time>
      </trkpt>
      <trkpt lat="35.709463720" lon="-105.902077390">
        <ele>2320.000</ele>
        <time>2019-05-23T18:13:24Z</time>
      </trkpt>
      <trkpt lat="35.709431840" lon="-105.902114430">
        <ele>2322.000</ele>
        <time>2019-05-23T18:13:28Z</time>
      </trkpt>
      <trkpt lat="35.709398130" lon="-105.902156720">
        <ele>2324.000</ele>
        <time>2019-05-23T18:13:32Z</time>
      </trkpt>
      <trkpt lat="35.709360140" lon="-105.902193410">
        <ele>2324.000</ele>
        <time>2019-05-23T18:13:36Z</time>
      </trkpt>
      <trkpt lat="35.709327620" lon="-105.902224360">
        <ele>2326.000</ele>
        <time>2019-05-23T18:13:39Z</time>
      </trkpt>
      <trkpt lat="35.709299580" lon="-105.902254570">
        <ele>2325.000</ele>
        <time>2019-05-23T18:13:44Z</time>
      </trkpt>
      <trkpt lat="35.709269410" lon="-105.902293980">
        <ele>2325.000</ele>
        <time>2019-05-23T18:13:48Z</time>
      </trkpt>
      <trkpt lat="35.709252370" lon="-105.902338640">
        <ele>2324.000</ele>
        <time>2019-05-23T18:13:54Z</time>
      </trkpt>
      <trkpt lat="35.709230890" lon="-105.902376720">
        <ele>2323.000</ele>
        <time>2019-05-23T18:13:59Z</time>
      </trkpt>
      <trkpt lat="35.709207340" lon="-105.902412420">
        <ele>2323.000</ele>
        <time>2019-05-23T18:14:02Z</time>
      </trkpt>
      <trkpt lat="35.709184470" lon="-105.902458050">
        <ele>2322.000</ele>
        <time>2019-05-23T18:14:07Z</time>
      </trkpt>
      <trkpt lat="35.709223730" lon="-105.902433250">
        <ele>2326.000</ele>
        <time>2019-05-23T18:14:17Z</time>
      </trkpt>
      <trkpt lat="35.709264730" lon="-105.902428460">
        <ele>2326.000</ele>
        <time>2019-05-23T18:14:23Z</time>
      </trkpt>
      <trkpt lat="35.709305460" lon="-105.902405220">
        <ele>2326.000</ele>
        <time>2019-05-23T18:14:29Z</time>
      </trkpt>
      <trkpt lat="35.709340480" lon="-105.902380430">
        <ele>2326.000</ele>
        <time>2019-05-23T18:14:34Z</time>
      </trkpt>
      <trkpt lat="35.709377810" lon="-105.902359140">
        <ele>2326.000</ele>
        <time>2019-05-23T18:14:39Z</time>
      </trkpt>
      <trkpt lat="35.709411930" lon="-105.902337200">
        <ele>2326.000</ele>
        <time>2019-05-23T18:14:46Z</time>
      </trkpt>
      <trkpt lat="35.709447930" lon="-105.902341190">
        <ele>2324.000</ele>
        <time>2019-05-23T18:14:51Z</time>
      </trkpt>
      <trkpt lat="35.709489500" lon="-105.902339140">
        <ele>2323.000</ele>
        <time>2019-05-23T18:14:56Z</time>
      </trkpt>
      <trkpt lat="35.709530410" lon="-105.902323360">
        <ele>2323.000</ele>
        <time>2019-05-23T18:15:02Z</time>
      </trkpt>
      <trkpt lat="35.709576680" lon="-105.902330010">
        <ele>2321.000</ele>
        <time>2019-05-23T18:15:09Z</time>
      </trkpt>
      <trkpt lat="35.709617160" lon="-105.902310090">
        <ele>2323.000</ele>
        <time>2019-05-23T18:15:14Z</time>
      </trkpt>
      <trkpt lat="35.709656310" lon="-105.902294300">
        <ele>2325.000</ele>
        <time>2019-05-23T18:15:18Z</time>
      </trkpt>
      <trkpt lat="35.709693020" lon="-105.902279860">
        <ele>2326.000</ele>
        <time>2019-05-23T18:15:22Z</time>
      </trkpt>
      <trkpt lat="35.709729780" lon="-105.902286770">
        <ele>2328.000</ele>
        <time>2019-05-23T18:15:26Z</time>
      </trkpt>
      <trkpt lat="35.709771010" lon="-105.902278030">
        <ele>2330.000</ele>
        <time>2019-05-23T18:15:29Z</time>
      </trkpt>
      <trkpt lat="35.709811110" lon="-105.902256740">
        <ele>2334.000</ele>
        <time>2019-05-23T18:15:32Z</time>
      </trkpt>
      <trkpt lat="35.709846560" lon="-105.902265890">
        <ele>2333.000</ele>
        <time>2019-05-23T18:15:36Z</time>
      </trkpt>
      <trkpt lat="35.709891530" lon="-105.902271860">
        <ele>2332.000</ele>
        <time>2019-05-23T18:15:41Z</time>
      </trkpt>
      <trkpt lat="35.709935050" lon="-105.902250790">
        <ele>2335.000</ele>
        <time>2019-05-23T18:15:45Z</time>
      </trkpt>
      <trkpt lat="35.709978100" lon="-105.902260430">
        <ele>2332.000</ele>
        <time>2019-05-23T18:15:50Z</time>
      </trkpt>
      <trkpt lat="35.710018030" lon="-105.902239230">
        <ele>2332.000</ele>
        <time>2019-05-23T18:15:54Z</time>
      </trkpt>
      <trkpt lat="35.710051220" lon="-105.902211200">
        <ele>2335.000</ele>
        <time>2019-05-23T18:15:57Z</time>
      </trkpt>
      <trkpt lat="35.710094570" lon="-105.902193400">
        <ele>2337.000</ele>
        <time>2019-05-23T18:16:01Z</time>
      </trkpt>
      <trkpt lat="35.710139570" lon="-105.902189370">
        <ele>2335.000</ele>
        <time>2019-05-23T18:16:05Z</time>
      </trkpt>
      <trkpt lat="35.710185430" lon="-105.902196370">
        <ele>2335.000</ele>
        <time>2019-05-23T18:16:11Z</time>
      </trkpt>
      <trkpt lat="35.710223980" lon="-105.902191830">
        <ele>2334.000</ele>
        <time>2019-05-23T18:16:14Z</time>
      </trkpt>
      <trkpt lat="35.710266860" lon="-105.902195030">
        <ele>2334.000</ele>
        <time>2019-05-23T18:16:19Z</time>
      </trkpt>
      <trkpt lat="35.710307490" lon="-105.902195500">
        <ele>2335.000</ele>
        <time>2019-05-23T18:16:24Z</time>
      </trkpt>
      <trkpt lat="35.710351240" lon="-105.902186440">
        <ele>2335.000</ele>
        <time>2019-05-23T18:16:28Z</time>
      </trkpt>
      <trkpt lat="35.710388250" lon="-105.902185170">
        <ele>2335.000</ele>
        <time>2019-05-23T18:16:31Z</time>
      </trkpt>
      <trkpt lat="35.710433110" lon="-105.902189360">
        <ele>2334.000</ele>
        <time>2019-05-23T18:16:35Z</time>
      </trkpt>
      <trkpt lat="35.710468660" lon="-105.902197690">
        <ele>2334.000</ele>
        <time>2019-05-23T18:16:39Z</time>
      </trkpt>
      <trkpt lat="35.710505380" lon="-105.902188170">
        <ele>2334.000</ele>
        <time>2019-05-23T18:16:43Z</time>
      </trkpt>
      <trkpt lat="35.710549820" lon="-105.902171070">
        <ele>2335.000</ele>
        <time>2019-05-23T18:16:48Z</time>
      </trkpt>
      <trkpt lat="35.710590590" lon="-105.902179970">
        <ele>2332.000</ele>
        <time>2019-05-23T18:16:53Z</time>
      </trkpt>
      <trkpt lat="35.710631750" lon="-105.902179480">
        <ele>2331.000</ele>
        <time>2019-05-23T18:16:58Z</time>
      </trkpt>
      <trkpt lat="35.710667730" lon="-105.902172370">
        <ele>2332.000</ele>
        <time>2019-05-23T18:17:01Z</time>
      </trkpt>
      <trkpt lat="35.710712270" lon="-105.902165830">
        <ele>2334.000</ele>
        <time>2019-05-23T18:17:05Z</time>
      </trkpt>
      <trkpt lat="35.710754190" lon="-105.902165020">
        <ele>2336.000</ele>
        <time>2019-05-23T18:17:08Z</time>
      </trkpt>
      <trkpt lat="35.710792170" lon="-105.902162720">
        <ele>2339.000</ele>
        <time>2019-05-23T18:17:14Z</time>
      </trkpt>
      <trkpt lat="35.710833110" lon="-105.902165590">
        <ele>2340.000</ele>
        <time>2019-05-23T18:17:22Z</time>
      </trkpt>
      <trkpt lat="35.710875820" lon="-105.902169810">
        <ele>2341.000</ele>
        <time>2019-05-23T18:17:26Z</time>
      </trkpt>
      <trkpt lat="35.710918960" lon="-105.902178160">
        <ele>2342.000</ele>
        <time>2019-05-23T18:17:32Z</time>
      </trkpt>
      <trkpt lat="35.710954420" lon="-105.902190150">
        <ele>2342.000</ele>
        <time>2019-05-23T18:17:36Z</time>
      </trkpt>
      <trkpt lat="35.710997990" lon="-105.902216180">
        <ele>2342.000</ele>
        <time>2019-05-23T18:17:39Z</time>
      </trkpt>
      <trkpt lat="35.711046300" lon="-105.902238940">
        <ele>2342.000</ele>
        <time>2019-05-23T18:17:42Z</time>
      </trkpt>
      <trkpt lat="35.711086300" lon="-105.902257080">
        <ele>2343.000</ele>
        <time>2019-05-23T18:17:46Z</time>
      </trkpt>
      <trkpt lat="35.711121830" lon="-105.902270260">
        <ele>2341.000</ele>
        <time>2019-05-23T18:17:58Z</time>
      </trkpt>
      <trkpt lat="35.711163370" lon="-105.902287620">
        <ele>2343.000</ele>
        <time>2019-05-23T18:18:03Z</time>
      </trkpt>
      <trkpt lat="35.711190540" lon="-105.902317410">
        <ele>2342.000</ele>
        <time>2019-05-23T18:18:07Z</time>
      </trkpt>
      <trkpt lat="35.711225330" lon="-105.902340290">
        <ele>2342.000</ele>
        <time>2019-05-23T18:18:12Z</time>
      </trkpt>
      <trkpt lat="35.711267420" lon="-105.902358720">
        <ele>2343.000</ele>
        <time>2019-05-23T18:18:16Z</time>
      </trkpt>
      <trkpt lat="35.711307740" lon="-105.902382070">
        <ele>2344.000</ele>
        <time>2019-05-23T18:18:22Z</time>
      </trkpt>
      <trkpt lat="35.711342840" lon="-105.902414760">
        <ele>2345.000</ele>
        <time>2019-05-23T18:18:26Z</time>
      </trkpt>
      <trkpt lat="35.711374590" lon="-105.902447820">
        <ele>2345.000</ele>
        <time>2019-05-23T18:18:30Z</time>
      </trkpt>
      <trkpt lat="35.711403570" lon="-105.902478270">
        <ele>2345.000</ele>
        <time>2019-05-23T18:18:35Z</time>
      </trkpt>
      <trkpt lat="35.711430910" lon="-105.902508620">
        <ele>2343.000</ele>
        <time>2019-05-23T18:18:39Z</time>
      </trkpt>
      <trkpt lat="35.711472760" lon="-105.902531590">
        <ele>2343.000</ele>
        <time>2019-05-23T18:18:44Z</time>
      </trkpt>
      <trkpt lat="35.711520430" lon="-105.902547010">
        <ele>2342.000</ele>
        <time>2019-05-23T18:18:48Z</time>
      </trkpt>
      <trkpt lat="35.711561900" lon="-105.902576880">
        <ele>2343.000</ele>
        <time>2019-05-23T18:18:52Z</time>
      </trkpt>
      <trkpt lat="35.711601940" lon="-105.902611140">
        <ele>2344.000</ele>
        <time>2019-05-23T18:18:54Z</time>
      </trkpt>
      <trkpt lat="35.711639520" lon="-105.902644870">
        <ele>2345.000</ele>
        <time>2019-05-23T18:18:57Z</time>
      </trkpt>
      <trkpt lat="35.711677260" lon="-105.902674040">
        <ele>2346.000</ele>
        <time>2019-05-23T18:19:00Z</time>
      </trkpt>
      <trkpt lat="35.711707040" lon="-105.902700680">
        <ele>2347.000</ele>
        <time>2019-05-23T18:19:04Z</time>
      </trkpt>
      <trkpt lat="35.711735320" lon="-105.902743250">
        <ele>2347.000</ele>
        <time>2019-05-23T18:19:08Z</time>
      </trkpt>
      <trkpt lat="35.711754630" lon="-105.902783540">
        <ele>2347.000</ele>
        <time>2019-05-23T18:19:12Z</time>
      </trkpt>
      <trkpt lat="35.711774450" lon="-105.902821670">
        <ele>2346.000</ele>
        <time>2019-05-23T18:19:16Z</time>
      </trkpt>
      <trkpt lat="35.711797070" lon="-105.902864000">
        <ele>2344.000</ele>
        <time>2019-05-23T18:19:22Z</time>
      </trkpt>
      <trkpt lat="35.711810620" lon="-105.902907580">
        <ele>2343.000</ele>
        <time>2019-05-23T18:19:26Z</time>
      </trkpt>
      <trkpt lat="35.711834880" lon="-105.902960270">
        <ele>2340.000</ele>
        <time>2019-05-23T18:19:32Z</time>
      </trkpt>
      <trkpt lat="35.711852370" lon="-105.903013610">
        <ele>2341.000</ele>
        <time>2019-05-23T18:19:37Z</time>
      </trkpt>
      <trkpt lat="35.711871700" lon="-105.903052000">
        <ele>2343.000</ele>
        <time>2019-05-23T18:19:40Z</time>
      </trkpt>
      <trkpt lat="35.711885320" lon="-105.903100180">
        <ele>2344.000</ele>
        <time>2019-05-23T18:19:44Z</time>
      </trkpt>
      <trkpt lat="35.711903050" lon="-105.903141680">
        <ele>2345.000</ele>
        <time>2019-05-23T18:19:47Z</time>
      </trkpt>
      <trkpt lat="35.711927330" lon="-105.903178270">
        <ele>2346.000</ele>
        <time>2019-05-23T18:19:50Z</time>
      </trkpt>
      <trkpt lat="35.711956020" lon="-105.903219130">
        <ele>2345.000</ele>
        <time>2019-05-23T18:19:54Z</time>
      </trkpt>
      <trkpt lat="35.711964540" lon="-105.903263300">
        <ele>2347.000</ele>
        <time>2019-05-23T18:19:58Z</time>
      </trkpt>
      <trkpt lat="35.711966110" lon="-105.903318060">
        <ele>2350.000</ele>
        <time>2019-05-23T18:20:02Z</time>
      </trkpt>
      <trkpt lat="35.711961580" lon="-105.903363380">
        <ele>2351.000</ele>
        <time>2019-05-23T18:20:06Z</time>
      </trkpt>
      <trkpt lat="35.711934820" lon="-105.903396900">
        <ele>2355.000</ele>
        <time>2019-05-23T18:21:46Z</time>
      </trkpt>
      <trkpt lat="35.711897940" lon="-105.903412390">
        <ele>2357.000</ele>
        <time>2019-05-23T18:22:31Z</time>
      </trkpt>
      <trkpt lat="35.711868130" lon="-105.903385760">
        <ele>2358.000</ele>
        <time>2019-05-23T18:22:35Z</time>
      </trkpt>
      <trkpt lat="35.711836350" lon="-105.903334250">
        <ele>2359.000</ele>
        <time>2019-05-23T18:22:40Z</time>
      </trkpt>
      <trkpt lat="35.711822370" lon="-105.903288550">
        <ele>2358.000</ele>
        <time>2019-05-23T18:23:01Z</time>
      </trkpt>
      <trkpt lat="35.711785210" lon="-105.903260940">
        <ele>2358.000</ele>
        <time>2019-05-23T18:23:05Z</time>
      </trkpt>
      <trkpt lat="35.711751060" lon="-105.903216200">
        <ele>2358.000</ele>
        <time>2019-05-23T18:23:09Z</time>
      </trkpt>
      <trkpt lat="35.711720730" lon="-105.903184140">
        <ele>2358.000</ele>
        <time>2019-05-23T18:23:14Z</time>
      </trkpt>
      <trkpt lat="35.711689410" lon="-105.903160200">
        <ele>2357.000</ele>
        <time>2019-05-23T18:23:19Z</time>
      </trkpt>
      <trkpt lat="35.711663380" lon="-105.903125880">
        <ele>2358.000</ele>
        <time>2019-05-23T18:23:23Z</time>
      </trkpt>
      <trkpt lat="35.711632220" lon="-105.903097270">
        <ele>2359.000</ele>
        <time>2019-05-23T18:23:27Z</time>
      </trkpt>
      <trkpt lat="35.711596440" lon="-105.903062810">
        <ele>2359.000</ele>
        <time>2019-05-23T18:23:31Z</time>
      </trkpt>
      <trkpt lat="35.711559510" lon="-105.903054030">
        <ele>2360.000</ele>
        <time>2019-05-23T18:23:35Z</time>
      </trkpt>
      <trkpt lat="35.711520700" lon="-105.903031090">
        <ele>2361.000</ele>
        <time>2019-05-23T18:23:40Z</time>
      </trkpt>
      <trkpt lat="35.711475240" lon="-105.903007940">
        <ele>2363.000</ele>
        <time>2019-05-23T18:23:45Z</time>
      </trkpt>
      <trkpt lat="35.711441210" lon="-105.902985750">
        <ele>2363.000</ele>
        <time>2019-05-23T18:23:49Z</time>
      </trkpt>
      <trkpt lat="35.711397340" lon="-105.902979010">
        <ele>2364.000</ele>
        <time>2019-05-23T18:23:54Z</time>
      </trkpt>
      <trkpt lat="35.711349870" lon="-105.902972100">
        <ele>2365.000</ele>
        <time>2019-05-23T18:24:00Z</time>
      </trkpt>
      <trkpt lat="35.711311650" lon="-105.902976210">
        <ele>2364.000</ele>
        <time>2019-05-23T18:24:04Z</time>
      </trkpt>
      <trkpt lat="35.711268450" lon="-105.902972160">
        <ele>2362.000</ele>
        <time>2019-05-23T18:24:09Z</time>
      </trkpt>
      <trkpt lat="35.711231880" lon="-105.902980060">
        <ele>2362.000</ele>
        <time>2019-05-23T18:24:14Z</time>
      </trkpt>
      <trkpt lat="35.711194200" lon="-105.902978340">
        <ele>2362.000</ele>
        <time>2019-05-23T18:24:20Z</time>
      </trkpt>
      <trkpt lat="35.711152850" lon="-105.902985940">
        <ele>2361.000</ele>
        <time>2019-05-23T18:24:26Z</time>
      </trkpt>
      <trkpt lat="35.711116850" lon="-105.902996170">
        <ele>2362.000</ele>
        <time>2019-05-23T18:24:29Z</time>
      </trkpt>
      <trkpt lat="35.711074760" lon="-105.903014250">
        <ele>2364.000</ele>
        <time>2019-05-23T18:24:33Z</time>
      </trkpt>
      <trkpt lat="35.711071610" lon="-105.903061600">
        <ele>2367.000</ele>
        <time>2019-05-23T18:25:15Z</time>
      </trkpt>
      <trkpt lat="35.711095040" lon="-105.903097210">
        <ele>2367.000</ele>
        <time>2019-05-23T18:25:19Z</time>
      </trkpt>
      <trkpt lat="35.711130800" lon="-105.903117890">
        <ele>2366.000</ele>
        <time>2019-05-23T18:25:32Z</time>
      </trkpt>
      <trkpt lat="35.711174360" lon="-105.903134510">
        <ele>2367.000</ele>
        <time>2019-05-23T18:25:37Z</time>
      </trkpt>
      <trkpt lat="35.711209890" lon="-105.903151790">
        <ele>2367.000</ele>
        <time>2019-05-23T18:25:41Z</time>
      </trkpt>
      <trkpt lat="35.711216200" lon="-105.903197830">
        <ele>2366.000</ele>
        <time>2019-05-23T18:25:48Z</time>
      </trkpt>
      <trkpt lat="35.711182230" lon="-105.903222530">
        <ele>2366.000</ele>
        <time>2019-05-23T18:25:53Z</time>
      </trkpt>
      <trkpt lat="35.711144780" lon="-105.903243860">
        <ele>2366.000</ele>
        <time>2019-05-23T18:25:58Z</time>
      </trkpt>
      <trkpt lat="35.711104520" lon="-105.903248880">
        <ele>2366.000</ele>
        <time>2019-05-23T18:26:02Z</time>
      </trkpt>
      <trkpt lat="35.711059450" lon="-105.903264330">
        <ele>2364.000</ele>
        <time>2019-05-23T18:26:08Z</time>
      </trkpt>
      <trkpt lat="35.711029990" lon="-105.903291020">
        <ele>2363.000</ele>
        <time>2019-05-23T18:26:12Z</time>
      </trkpt>
      <trkpt lat="35.711000890" lon="-105.903320200">
        <ele>2363.000</ele>
        <time>2019-05-23T18:26:18Z</time>
      </trkpt>
      <trkpt lat="35.710974360" lon="-105.903350600">
        <ele>2363.000</ele>
        <time>2019-05-23T18:26:23Z</time>
      </trkpt>
      <trkpt lat="35.710939970" lon="-105.903387290">
        <ele>2362.000</ele>
        <time>2019-05-23T18:26:27Z</time>
      </trkpt>
      <trkpt lat="35.710908520" lon="-105.903425730">
        <ele>2362.000</ele>
        <time>2019-05-23T18:26:31Z</time>
      </trkpt>
      <trkpt lat="35.710881920" lon="-105.903459090">
        <ele>2362.000</ele>
        <time>2019-05-23T18:26:33Z</time>
      </trkpt>
      <trkpt lat="35.710854750" lon="-105.903499150">
        <ele>2361.000</ele>
        <time>2019-05-23T18:26:38Z</time>
      </trkpt>
      <trkpt lat="35.710821660" lon="-105.903518870">
        <ele>2360.000</ele>
        <time>2019-05-23T18:26:43Z</time>
      </trkpt>
      <trkpt lat="35.710809140" lon="-105.903565350">
        <ele>2360.000</ele>
        <time>2019-05-23T18:27:04Z</time>
      </trkpt>
      <trkpt lat="35.710778430" lon="-105.903598380">
        <ele>2360.000</ele>
        <time>2019-05-23T18:27:14Z</time>
      </trkpt>
      <trkpt lat="35.710745850" lon="-105.903625130">
        <ele>2359.000</ele>
        <time>2019-05-23T18:27:18Z</time>
      </trkpt>
      <trkpt lat="35.710708110" lon="-105.903646320">
        <ele>2357.000</ele>
        <time>2019-05-23T18:27:28Z</time>
      </trkpt>
      <trkpt lat="35.710676570" lon="-105.903670030">
        <ele>2359.000</ele>
        <time>2019-05-23T18:27:33Z</time>
      </trkpt>
      <trkpt lat="35.710646680" lon="-105.903698240">
        <ele>2357.000</ele>
        <time>2019-05-23T18:27:42Z</time>
      </trkpt>
      <trkpt lat="35.710609460" lon="-105.903730130">
        <ele>2357.000</ele>
        <time>2019-05-23T18:27:48Z</time>
      </trkpt>
      <trkpt lat="35.710561440" lon="-105.903756810">
        <ele>2356.000</ele>
        <time>2019-05-23T18:27:52Z</time>
      </trkpt>
      <trkpt lat="35.710517910" lon="-105.903772850">
        <ele>2355.000</ele>
        <time>2019-05-23T18:27:56Z</time>
      </trkpt>
      <trkpt lat="35.710474600" lon="-105.903804230">
        <ele>2356.000</ele>
        <time>2019-05-23T18:28:00Z</time>
      </trkpt>
      <trkpt lat="35.710441290" lon="-105.903822450">
        <ele>2355.000</ele>
        <time>2019-05-23T18:28:04Z</time>
      </trkpt>
      <trkpt lat="35.710406500" lon="-105.903846110">
        <ele>2355.000</ele>
        <time>2019-05-23T18:28:08Z</time>
      </trkpt>
      <trkpt lat="35.710374740" lon="-105.903877200">
        <ele>2355.000</ele>
        <time>2019-05-23T18:28:11Z</time>
      </trkpt>
      <trkpt lat="35.710335000" lon="-105.903907270">
        <ele>2355.000</ele>
        <time>2019-05-23T18:28:14Z</time>
      </trkpt>
      <trkpt lat="35.710299350" lon="-105.903927470">
        <ele>2354.000</ele>
        <time>2019-05-23T18:28:19Z</time>
      </trkpt>
      <trkpt lat="35.710260720" lon="-105.903938610">
        <ele>2353.000</ele>
        <time>2019-05-23T18:28:25Z</time>
      </trkpt>
      <trkpt lat="35.710225930" lon="-105.903953940">
        <ele>2352.000</ele>
        <time>2019-05-23T18:28:29Z</time>
      </trkpt>
      <trkpt lat="35.710186400" lon="-105.903989480">
        <ele>2351.000</ele>
        <time>2019-05-23T18:28:34Z</time>
      </trkpt>
      <trkpt lat="35.710152750" lon="-105.904006930">
        <ele>2351.000</ele>
        <time>2019-05-23T18:28:38Z</time>
      </trkpt>
      <trkpt lat="35.710117320" lon="-105.904030640">
        <ele>2351.000</ele>
        <time>2019-05-23T18:28:42Z</time>
      </trkpt>
      <trkpt lat="35.710076100" lon="-105.904049240">
        <ele>2349.000</ele>
        <time>2019-05-23T18:28:48Z</time>
      </trkpt>
      <trkpt lat="35.710036080" lon="-105.904064630">
        <ele>2348.000</ele>
        <time>2019-05-23T18:28:52Z</time>
      </trkpt>
      <trkpt lat="35.709998950" lon="-105.904079850">
        <ele>2349.000</ele>
        <time>2019-05-23T18:28:56Z</time>
      </trkpt>
      <trkpt lat="35.709964250" lon="-105.904110610">
        <ele>2350.000</ele>
        <time>2019-05-23T18:29:01Z</time>
      </trkpt>
      <trkpt lat="35.709923070" lon="-105.904124360">
        <ele>2348.000</ele>
        <time>2019-05-23T18:29:05Z</time>
      </trkpt>
      <trkpt lat="35.709881420" lon="-105.904143240">
        <ele>2347.000</ele>
        <time>2019-05-23T18:29:10Z</time>
      </trkpt>
      <trkpt lat="35.709843740" lon="-105.904153860">
        <ele>2347.000</ele>
        <time>2019-05-23T18:29:16Z</time>
      </trkpt>
      <trkpt lat="35.709805320" lon="-105.904152890">
        <ele>2349.000</ele>
        <time>2019-05-23T18:29:30Z</time>
      </trkpt>
      <trkpt lat="35.709773110" lon="-105.904173150">
        <ele>2353.000</ele>
        <time>2019-05-23T18:30:15Z</time>
      </trkpt>
      <trkpt lat="35.709735480" lon="-105.904196470">
        <ele>2351.000</ele>
        <time>2019-05-23T18:30:22Z</time>
      </trkpt>
      <trkpt lat="35.709697380" lon="-105.904206240">
        <ele>2352.000</ele>
        <time>2019-05-23T18:30:26Z</time>
      </trkpt>
      <trkpt lat="35.709605220" lon="-105.904224690">
        <ele>2351.000</ele>
        <time>2019-05-23T18:30:55Z</time>
      </trkpt>
      <trkpt lat="35.709559570" lon="-105.904224260">
        <ele>2352.000</ele>
        <time>2019-05-23T18:30:59Z</time>
      </trkpt>
      <trkpt lat="35.709520530" lon="-105.904228600">
        <ele>2351.000</ele>
        <time>2019-05-23T18:31:03Z</time>
      </trkpt>
      <trkpt lat="35.709476400" lon="-105.904222270">
        <ele>2352.000</ele>
        <time>2019-05-23T18:31:06Z</time>
      </trkpt>
      <trkpt lat="35.709443790" lon="-105.904246600">
        <ele>2351.000</ele>
        <time>2019-05-23T18:31:10Z</time>
      </trkpt>
      <trkpt lat="35.709397920" lon="-105.904260800">
        <ele>2350.000</ele>
        <time>2019-05-23T18:31:15Z</time>
      </trkpt>
      <trkpt lat="35.709353770" lon="-105.904275160">
        <ele>2350.000</ele>
        <time>2019-05-23T18:31:21Z</time>
      </trkpt>
      <trkpt lat="35.709315750" lon="-105.904281030">
        <ele>2349.000</ele>
        <time>2019-05-23T18:31:24Z</time>
      </trkpt>
      <trkpt lat="35.709282260" lon="-105.904297430">
        <ele>2350.000</ele>
        <time>2019-05-23T18:31:27Z</time>
      </trkpt>
      <trkpt lat="35.709239830" lon="-105.904317310">
        <ele>2349.000</ele>
        <time>2019-05-23T18:31:37Z</time>
      </trkpt>
      <trkpt lat="35.709207130" lon="-105.904338280">
        <ele>2348.000</ele>
        <time>2019-05-23T18:31:41Z</time>
      </trkpt>
      <trkpt lat="35.709170610" lon="-105.904336940">
        <ele>2345.000</ele>
        <time>2019-05-23T18:31:45Z</time>
      </trkpt>
      <trkpt lat="35.709134480" lon="-105.904339300">
        <ele>2344.000</ele>
        <time>2019-05-23T18:31:49Z</time>
      </trkpt>
      <trkpt lat="35.709097380" lon="-105.904359390">
        <ele>2344.000</ele>
        <time>2019-05-23T18:31:55Z</time>
      </trkpt>
      <trkpt lat="35.709070120" lon="-105.904390730">
        <ele>2346.000</ele>
        <time>2019-05-23T18:32:13Z</time>
      </trkpt>
      <trkpt lat="35.709037830" lon="-105.904418360">
        <ele>2345.000</ele>
        <time>2019-05-23T18:32:29Z</time>
      </trkpt>
      <trkpt lat="35.709001580" lon="-105.904426940">
        <ele>2347.000</ele>
        <time>2019-05-23T18:32:52Z</time>
      </trkpt>
      <trkpt lat="35.708950390" lon="-105.904431870">
        <ele>2344.000</ele>
        <time>2019-05-23T18:32:58Z</time>
      </trkpt>
      <trkpt lat="35.708900450" lon="-105.904430150">
        <ele>2344.000</ele>
        <time>2019-05-23T18:33:01Z</time>
      </trkpt>
      <trkpt lat="35.708859760" lon="-105.904434010">
        <ele>2344.000</ele>
        <time>2019-05-23T18:33:05Z</time>
      </trkpt>
      <trkpt lat="35.708815520" lon="-105.904455410">
        <ele>2339.000</ele>
        <time>2019-05-23T18:33:11Z</time>
      </trkpt>
      <trkpt lat="35.708780550" lon="-105.904467250">
        <ele>2340.000</ele>
        <time>2019-05-23T18:33:15Z</time>
      </trkpt>
      <trkpt lat="35.708734440" lon="-105.904484790">
        <ele>2339.000</ele>
        <time>2019-05-23T18:33:19Z</time>
      </trkpt>
      <trkpt lat="35.708695390" lon="-105.904492060">
        <ele>2339.000</ele>
        <time>2019-05-23T18:33:24Z</time>
      </trkpt>
      <trkpt lat="35.708658810" lon="-105.904515250">
        <ele>2341.000</ele>
        <time>2019-05-23T18:33:29Z</time>
      </trkpt>
      <trkpt lat="35.708636730" lon="-105.904550430">
        <ele>2342.000</ele>
        <time>2019-05-23T18:34:03Z</time>
      </trkpt>
      <trkpt lat="35.708597670" lon="-105.904565020">
        <ele>2341.000</ele>
        <time>2019-05-23T18:34:07Z</time>
      </trkpt>
      <trkpt lat="35.708560530" lon="-105.904561340">
        <ele>2340.000</ele>
        <time>2019-05-23T18:34:10Z</time>
      </trkpt>
      <trkpt lat="35.708523400" lon="-105.904561440">
        <ele>2337.000</ele>
        <time>2019-05-23T18:34:14Z</time>
      </trkpt>
      <trkpt lat="35.708484190" lon="-105.904557930">
        <ele>2337.000</ele>
        <time>2019-05-23T18:34:22Z</time>
      </trkpt>
      <trkpt lat="35.708448780" lon="-105.904548890">
        <ele>2341.000</ele>
        <time>2019-05-23T18:34:33Z</time>
      </trkpt>
      <trkpt lat="35.708411130" lon="-105.904554460">
        <ele>2342.000</ele>
        <time>2019-05-23T18:34:39Z</time>
      </trkpt>
      <trkpt lat="35.708375360" lon="-105.904532220">
        <ele>2341.000</ele>
        <time>2019-05-23T18:34:46Z</time>
      </trkpt>
      <trkpt lat="35.708329480" lon="-105.904525270">
        <ele>2342.000</ele>
        <time>2019-05-23T18:34:50Z</time>
      </trkpt>
      <trkpt lat="35.708287220" lon="-105.904510640">
        <ele>2342.000</ele>
        <time>2019-05-23T18:34:54Z</time>
      </trkpt>
      <trkpt lat="35.708246100" lon="-105.904506130">
        <ele>2343.000</ele>
        <time>2019-05-23T18:34:58Z</time>
      </trkpt>
      <trkpt lat="35.708211840" lon="-105.904490270">
        <ele>2343.000</ele>
        <time>2019-05-23T18:35:03Z</time>
      </trkpt>
      <trkpt lat="35.708181510" lon="-105.904455190">
        <ele>2344.000</ele>
        <time>2019-05-23T18:35:07Z</time>
      </trkpt>
      <trkpt lat="35.708145400" lon="-105.904435980">
        <ele>2343.000</ele>
        <time>2019-05-23T18:35:11Z</time>
      </trkpt>
      <trkpt lat="35.708114040" lon="-105.904405850">
        <ele>2343.000</ele>
        <time>2019-05-23T18:35:16Z</time>
      </trkpt>
      <trkpt lat="35.708083270" lon="-105.904378810">
        <ele>2343.000</ele>
        <time>2019-05-23T18:35:20Z</time>
      </trkpt>
      <trkpt lat="35.708062070" lon="-105.904341990">
        <ele>2345.000</ele>
        <time>2019-05-23T18:35:37Z</time>
      </trkpt>
      <trkpt lat="35.708047290" lon="-105.904295210">
        <ele>2346.000</ele>
        <time>2019-05-23T18:35:57Z</time>
      </trkpt>
      <trkpt lat="35.708039060" lon="-105.904231470">
        <ele>2348.000</ele>
        <time>2019-05-23T18:36:01Z</time>
      </trkpt>
      <trkpt lat="35.708041000" lon="-105.904186880">
        <ele>2347.000</ele>
        <time>2019-05-23T18:36:04Z</time>
      </trkpt>
      <trkpt lat="35.708045490" lon="-105.904137560">
        <ele>2348.000</ele>
        <time>2019-05-23T18:36:08Z</time>
      </trkpt>
      <trkpt lat="35.708042260" lon="-105.904086090">
        <ele>2347.000</ele>
        <time>2019-05-23T18:36:12Z</time>
      </trkpt>
      <trkpt lat="35.708048170" lon="-105.904036600">
        <ele>2347.000</ele>
        <time>2019-05-23T18:36:16Z</time>
      </trkpt>
      <trkpt lat="35.708065250" lon="-105.903992600">
        <ele>2348.000</ele>
        <time>2019-05-23T18:36:19Z</time>
      </trkpt>
      <trkpt lat="35.708071660" lon="-105.903938830">
        <ele>2349.000</ele>
        <time>2019-05-23T18:36:22Z</time>
      </trkpt>
      <trkpt lat="35.708086200" lon="-105.903897990">
        <ele>2350.000</ele>
        <time>2019-05-23T18:36:26Z</time>
      </trkpt>
      <trkpt lat="35.708098600" lon="-105.903853590">
        <ele>2352.000</ele>
        <time>2019-05-23T18:36:29Z</time>
      </trkpt>
      <trkpt lat="35.708121370" lon="-105.903815330">
        <ele>2351.000</ele>
        <time>2019-05-23T18:36:33Z</time>
      </trkpt>
      <trkpt lat="35.708130260" lon="-105.903772470">
        <ele>2353.000</ele>
        <time>2019-05-23T18:36:36Z</time>
      </trkpt>
      <trkpt lat="35.708139510" lon="-105.903727650">
        <ele>2354.000</ele>
        <time>2019-05-23T18:36:41Z</time>
      </trkpt>
      <trkpt lat="35.708168150" lon="-105.903695840">
        <ele>2356.000</ele>
        <time>2019-05-23T18:36:52Z</time>
      </trkpt>
      <trkpt lat="35.708196900" lon="-105.903667880">
        <ele>2356.000</ele>
        <time>2019-05-23T18:36:57Z</time>
      </trkpt>
      <trkpt lat="35.708239600" lon="-105.903656990">
        <ele>2356.000</ele>
        <time>2019-05-23T18:37:02Z</time>
      </trkpt>
      <trkpt lat="35.708277770" lon="-105.903667770">
        <ele>2356.000</ele>
        <time>2019-05-23T18:37:06Z</time>
      </trkpt>
      <trkpt lat="35.708320510" lon="-105.903669470">
        <ele>2357.000</ele>
        <time>2019-05-23T18:37:12Z</time>
      </trkpt>
      <trkpt lat="35.708351490" lon="-105.903642300">
        <ele>2357.000</ele>
        <time>2019-05-23T18:37:17Z</time>
      </trkpt>
      <trkpt lat="35.708389010" lon="-105.903627300">
        <ele>2358.000</ele>
        <time>2019-05-23T18:37:21Z</time>
      </trkpt>
      <trkpt lat="35.708426400" lon="-105.903616290">
        <ele>2358.000</ele>
        <time>2019-05-23T18:37:25Z</time>
      </trkpt>
      <trkpt lat="35.708467700" lon="-105.903616190">
        <ele>2357.000</ele>
        <time>2019-05-23T18:37:29Z</time>
      </trkpt>
      <trkpt lat="35.708511890" lon="-105.903621020">
        <ele>2361.000</ele>
        <time>2019-05-23T18:37:34Z</time>
      </trkpt>
      <trkpt lat="35.708555430" lon="-105.903628560">
        <ele>2362.000</ele>
        <time>2019-05-23T18:37:43Z</time>
      </trkpt>
      <trkpt lat="35.708605230" lon="-105.903636180">
        <ele>2361.000</ele>
        <time>2019-05-23T18:37:49Z</time>
      </trkpt>
      <trkpt lat="35.708647380" lon="-105.903616440">
        <ele>2360.000</ele>
        <time>2019-05-23T18:37:53Z</time>
      </trkpt>
      <trkpt lat="35.708688430" lon="-105.903599880">
        <ele>2359.000</ele>
        <time>2019-05-23T18:37:58Z</time>
      </trkpt>
      <trkpt lat="35.708714050" lon="-105.903568630">
        <ele>2360.000</ele>
        <time>2019-05-23T18:38:02Z</time>
      </trkpt>
      <trkpt lat="35.708746910" lon="-105.903549660">
        <ele>2360.000</ele>
        <time>2019-05-23T18:38:06Z</time>
      </trkpt>
      <trkpt lat="35.708784730" lon="-105.903518780">
        <ele>2359.000</ele>
        <time>2019-05-23T18:38:10Z</time>
      </trkpt>
      <trkpt lat="35.708810610" lon="-105.903487200">
        <ele>2359.000</ele>
        <time>2019-05-23T18:38:13Z</time>
      </trkpt>
      <trkpt lat="35.708845420" lon="-105.903464460">
        <ele>2359.000</ele>
        <time>2019-05-23T18:38:18Z</time>
      </trkpt>
      <trkpt lat="35.708883210" lon="-105.903445270">
        <ele>2358.000</ele>
        <time>2019-05-23T18:38:22Z</time>
      </trkpt>
      <trkpt lat="35.708913710" lon="-105.903415730">
        <ele>2357.000</ele>
        <time>2019-05-23T18:38:26Z</time>
      </trkpt>
      <trkpt lat="35.708949690" lon="-105.903400710">
        <ele>2356.000</ele>
        <time>2019-05-23T18:38:30Z</time>
      </trkpt>
      <trkpt lat="35.708985930" lon="-105.903384500">
        <ele>2355.000</ele>
        <time>2019-05-23T18:38:34Z</time>
      </trkpt>
      <trkpt lat="35.709024750" lon="-105.903375840">
        <ele>2354.000</ele>
        <time>2019-05-23T18:38:38Z</time>
      </trkpt>
      <trkpt lat="35.709062070" lon="-105.903350730">
        <ele>2353.000</ele>
        <time>2019-05-23T18:38:42Z</time>
      </trkpt>
      <trkpt lat="35.709096580" lon="-105.903321790">
        <ele>2354.000</ele>
        <time>2019-05-23T18:38:46Z</time>
      </trkpt>
      <trkpt lat="35.709126180" lon="-105.903287660">
        <ele>2353.000</ele>
        <time>2019-05-23T18:38:52Z</time>
      </trkpt>
      <trkpt lat="35.709091680" lon="-105.903255580">
        <ele>2352.000</ele>
        <time>2019-05-23T18:38:57Z</time>
      </trkpt>
      <trkpt lat="35.709053240" lon="-105.903247930">
        <ele>2352.000</ele>
        <time>2019-05-23T18:39:01Z</time>
      </trkpt>
      <trkpt lat="35.709012620" lon="-105.903241340">
        <ele>2352.000</ele>
        <time>2019-05-23T18:39:05Z</time>
      </trkpt>
      <trkpt lat="35.708976360" lon="-105.903234350">
        <ele>2352.000</ele>
        <time>2019-05-23T18:39:12Z</time>
      </trkpt>
      <trkpt lat="35.708937630" lon="-105.903235360">
        <ele>2353.000</ele>
        <time>2019-05-23T18:39:25Z</time>
      </trkpt>
      <trkpt lat="35.708903730" lon="-105.903251180">
        <ele>2353.000</ele>
        <time>2019-05-23T18:39:28Z</time>
      </trkpt>
      <trkpt lat="35.708867640" lon="-105.903256370">
        <ele>2353.000</ele>
        <time>2019-05-23T18:39:32Z</time>
      </trkpt>
      <trkpt lat="35.708831260" lon="-105.903266310">
        <ele>2352.000</ele>
        <time>2019-05-23T18:39:36Z</time>
      </trkpt>
      <trkpt lat="35.708791580" lon="-105.903266730">
        <ele>2352.000</ele>
        <time>2019-05-23T18:39:41Z</time>
      </trkpt>
      <trkpt lat="35.708753010" lon="-105.903262650">
        <ele>2352.000</ele>
        <time>2019-05-23T18:39:45Z</time>
      </trkpt>
      <trkpt lat="35.708716750" lon="-105.903268110">
        <ele>2351.000</ele>
        <time>2019-05-23T18:39:49Z</time>
      </trkpt>
      <trkpt lat="35.708681470" lon="-105.903281620">
        <ele>2350.000</ele>
        <time>2019-05-23T18:39:53Z</time>
      </trkpt>
      <trkpt lat="35.708644840" lon="-105.903294470">
        <ele>2348.000</ele>
        <time>2019-05-23T18:39:58Z</time>
      </trkpt>
      <trkpt lat="35.708600180" lon="-105.903307210">
        <ele>2349.000</ele>
        <time>2019-05-23T18:40:02Z</time>
      </trkpt>
      <trkpt lat="35.708558310" lon="-105.903309500">
        <ele>2348.000</ele>
        <time>2019-05-23T18:40:07Z</time>
      </trkpt>
      <trkpt lat="35.708521400" lon="-105.903312030">
        <ele>2349.000</ele>
        <time>2019-05-23T18:40:13Z</time>
      </trkpt>
      <trkpt lat="35.708483210" lon="-105.903308840">
        <ele>2348.000</ele>
        <time>2019-05-23T18:40:18Z</time>
      </trkpt>
      <trkpt lat="35.708446180" lon="-105.903297120">
        <ele>2347.000</ele>
        <time>2019-05-23T18:40:22Z</time>
      </trkpt>
      <trkpt lat="35.708405950" lon="-105.903291250">
        <ele>2346.000</ele>
        <time>2019-05-23T18:40:26Z</time>
      </trkpt>
      <trkpt lat="35.708367140" lon="-105.903282720">
        <ele>2345.000</ele>
        <time>2019-05-23T18:40:32Z</time>
      </trkpt>
      <trkpt lat="35.708320980" lon="-105.903285750">
        <ele>2345.000</ele>
        <time>2019-05-23T18:40:36Z</time>
      </trkpt>
      <trkpt lat="35.708282390" lon="-105.903288780">
        <ele>2344.000</ele>
        <time>2019-05-23T18:40:41Z</time>
      </trkpt>
      <trkpt lat="35.708245600" lon="-105.903291670">
        <ele>2343.000</ele>
        <time>2019-05-23T18:40:45Z</time>
      </trkpt>
      <trkpt lat="35.708197500" lon="-105.903287720">
        <ele>2342.000</ele>
        <time>2019-05-23T18:40:50Z</time>
      </trkpt>
      <trkpt lat="35.708154700" lon="-105.903284060">
        <ele>2342.000</ele>
        <time>2019-05-23T18:40:55Z</time>
      </trkpt>
      <trkpt lat="35.708114030" lon="-105.903291070">
        <ele>2341.000</ele>
        <time>2019-05-23T18:41:00Z</time>
      </trkpt>
      <trkpt lat="35.708067570" lon="-105.903296970">
        <ele>2341.000</ele>
        <time>2019-05-23T18:41:04Z</time>
      </trkpt>
      <trkpt lat="35.708027920" lon="-105.903309330">
        <ele>2341.000</ele>
        <time>2019-05-23T18:41:08Z</time>
      </trkpt>
      <trkpt lat="35.707984080" lon="-105.903315610">
        <ele>2340.000</ele>
        <time>2019-05-23T18:41:13Z</time>
      </trkpt>
      <trkpt lat="35.707948560" lon="-105.903339780">
        <ele>2341.000</ele>
        <time>2019-05-23T18:41:18Z</time>
      </trkpt>
      <trkpt lat="35.707942250" lon="-105.903295080">
        <ele>2339.000</ele>
        <time>2019-05-23T18:41:33Z</time>
      </trkpt>
      <trkpt lat="35.707968830" lon="-105.903254410">
        <ele>2339.000</ele>
        <time>2019-05-23T18:41:38Z</time>
      </trkpt>
      <trkpt lat="35.707997020" lon="-105.903225980">
        <ele>2338.000</ele>
        <time>2019-05-23T18:41:43Z</time>
      </trkpt>
      <trkpt lat="35.708028590" lon="-105.903202510">
        <ele>2337.000</ele>
        <time>2019-05-23T18:41:47Z</time>
      </trkpt>
      <trkpt lat="35.708063320" lon="-105.903181980">
        <ele>2336.000</ele>
        <time>2019-05-23T18:41:51Z</time>
      </trkpt>
      <trkpt lat="35.708096950" lon="-105.903155730">
        <ele>2335.000</ele>
        <time>2019-05-23T18:41:56Z</time>
      </trkpt>
      <trkpt lat="35.708120730" lon="-105.903120830">
        <ele>2334.000</ele>
        <time>2019-05-23T18:42:01Z</time>
      </trkpt>
      <trkpt lat="35.708149190" lon="-105.903073770">
        <ele>2333.000</ele>
        <time>2019-05-23T18:42:06Z</time>
      </trkpt>
      <trkpt lat="35.708181630" lon="-105.903052200">
        <ele>2333.000</ele>
        <time>2019-05-23T18:42:11Z</time>
      </trkpt>
      <trkpt lat="35.708211640" lon="-105.903026640">
        <ele>2331.000</ele>
        <time>2019-05-23T18:42:16Z</time>
      </trkpt>
      <trkpt lat="35.708247180" lon="-105.903004560">
        <ele>2333.000</ele>
        <time>2019-05-23T18:42:20Z</time>
      </trkpt>
      <trkpt lat="35.708290450" lon="-105.902999620">
        <ele>2334.000</ele>
        <time>2019-05-23T18:42:24Z</time>
      </trkpt>
      <trkpt lat="35.708326930" lon="-105.902994950">
        <ele>2334.000</ele>
        <time>2019-05-23T18:42:28Z</time>
      </trkpt>
      <trkpt lat="35.708365560" lon="-105.903001060">
        <ele>2333.000</ele>
        <time>2019-05-23T18:42:32Z</time>
      </trkpt>
      <trkpt lat="35.708402320" lon="-105.903000250">
        <ele>2331.000</ele>
        <time>2019-05-23T18:42:37Z</time>
      </trkpt>
      <trkpt lat="35.708438830" lon="-105.902995440">
        <ele>2331.000</ele>
        <time>2019-05-23T18:42:40Z</time>
      </trkpt>
      <trkpt lat="35.708471280" lon="-105.902973530">
        <ele>2331.000</ele>
        <time>2019-05-23T18:42:44Z</time>
      </trkpt>
      <trkpt lat="35.708500970" lon="-105.902937000">
        <ele>2330.000</ele>
        <time>2019-05-23T18:42:49Z</time>
      </trkpt>
      <trkpt lat="35.708520740" lon="-105.902895640">
        <ele>2330.000</ele>
        <time>2019-05-23T18:42:54Z</time>
      </trkpt>
      <trkpt lat="35.708548810" lon="-105.902851930">
        <ele>2329.000</ele>
        <time>2019-05-23T18:43:00Z</time>
      </trkpt>
      <trkpt lat="35.708574240" lon="-105.902808320">
        <ele>2329.000</ele>
        <time>2019-05-23T18:43:04Z</time>
      </trkpt>
      <trkpt lat="35.708598540" lon="-105.902769710">
        <ele>2329.000</ele>
        <time>2019-05-23T18:43:07Z</time>
      </trkpt>
      <trkpt lat="35.708636460" lon="-105.902742600">
        <ele>2328.000</ele>
        <time>2019-05-23T18:43:11Z</time>
      </trkpt>
      <trkpt lat="35.708674510" lon="-105.902719940">
        <ele>2327.000</ele>
        <time>2019-05-23T18:43:16Z</time>
      </trkpt>
      <trkpt lat="35.708715160" lon="-105.902700500">
        <ele>2326.000</ele>
        <time>2019-05-23T18:43:21Z</time>
      </trkpt>
      <trkpt lat="35.708749280" lon="-105.902685850">
        <ele>2326.000</ele>
        <time>2019-05-23T18:43:26Z</time>
      </trkpt>
      <trkpt lat="35.708788840" lon="-105.902683600">
        <ele>2326.000</ele>
        <time>2019-05-23T18:43:31Z</time>
      </trkpt>
      <trkpt lat="35.708805440" lon="-105.902639470">
        <ele>2326.000</ele>
        <time>2019-05-23T18:44:18Z</time>
      </trkpt>
      <trkpt lat="35.708772070" lon="-105.902617500">
        <ele>2326.000</ele>
        <time>2019-05-23T18:44:40Z</time>
      </trkpt>
      <trkpt lat="35.708731530" lon="-105.902594530">
        <ele>2327.000</ele>
        <time>2019-05-23T18:44:44Z</time>
      </trkpt>
      <trkpt lat="35.708693650" lon="-105.902577050">
        <ele>2327.000</ele>
        <time>2019-05-23T18:44:47Z</time>
      </trkpt>
      <trkpt lat="35.708650860" lon="-105.902574710">
        <ele>2326.000</ele>
        <time>2019-05-23T18:44:51Z</time>
      </trkpt>
      <trkpt lat="35.708613250" lon="-105.902600700">
        <ele>2326.000</ele>
        <time>2019-05-23T18:44:55Z</time>
      </trkpt>
      <trkpt lat="35.708578540" lon="-105.902615550">
        <ele>2325.000</ele>
        <time>2019-05-23T18:44:59Z</time>
      </trkpt>
      <trkpt lat="35.708541420" lon="-105.902635000">
        <ele>2325.000</ele>
        <time>2019-05-23T18:45:03Z</time>
      </trkpt>
      <trkpt lat="35.708508380" lon="-105.902656710">
        <ele>2324.000</ele>
        <time>2019-05-23T18:45:08Z</time>
      </trkpt>
      <trkpt lat="35.708519700" lon="-105.902606450">
        <ele>2324.000</ele>
        <time>2019-05-23T18:45:11Z</time>
      </trkpt>
      <trkpt lat="35.708537080" lon="-105.902566820">
        <ele>2324.000</ele>
        <time>2019-05-23T18:45:14Z</time>
      </trkpt>
      <trkpt lat="35.708558110" lon="-105.902515320">
        <ele>2323.000</ele>
        <time>2019-05-23T18:45:18Z</time>
      </trkpt>
      <trkpt lat="35.708579720" lon="-105.902473070">
        <ele>2323.000</ele>
        <time>2019-05-23T18:45:21Z</time>
      </trkpt>
      <trkpt lat="35.708585860" lon="-105.902418800">
        <ele>2323.000</ele>
        <time>2019-05-23T18:45:24Z</time>
      </trkpt>
      <trkpt lat="35.708624630" lon="-105.902408210">
        <ele>2320.000</ele>
        <time>2019-05-23T18:45:29Z</time>
      </trkpt>
      <trkpt lat="35.708663440" lon="-105.902404970">
        <ele>2318.000</ele>
        <time>2019-05-23T18:45:35Z</time>
      </trkpt>
      <trkpt lat="35.708700870" lon="-105.902430800">
        <ele>2314.000</ele>
        <time>2019-05-23T18:45:41Z</time>
      </trkpt>
      <trkpt lat="35.708737130" lon="-105.902442600">
        <ele>2313.000</ele>
        <time>2019-05-23T18:45:44Z</time>
      </trkpt>
      <trkpt lat="35.708775670" lon="-105.902430080">
        <ele>2312.000</ele>
        <time>2019-05-23T18:45:48Z</time>
      </trkpt>
      <trkpt lat="35.708810610" lon="-105.902416390">
        <ele>2312.000</ele>
        <time>2019-05-23T18:45:51Z</time>
      </trkpt>
      <trkpt lat="35.708839160" lon="-105.902372310">
        <ele>2311.000</ele>
        <time>2019-05-23T18:45:57Z</time>
      </trkpt>
      <trkpt lat="35.708855100" lon="-105.902332650">
        <ele>2314.000</ele>
        <time>2019-05-23T18:46:12Z</time>
      </trkpt>
      <trkpt lat="35.708871720" lon="-105.902282470">
        <ele>2316.000</ele>
        <time>2019-05-23T18:46:23Z</time>
      </trkpt>
      <trkpt lat="35.708895730" lon="-105.902247530">
        <ele>2315.000</ele>
        <time>2019-05-23T18:46:30Z</time>
      </trkpt>
      <trkpt lat="35.708894420" lon="-105.902193180">
        <ele>2314.000</ele>
        <time>2019-05-23T18:46:36Z</time>
      </trkpt>
      <trkpt lat="35.708897560" lon="-105.902146960">
        <ele>2314.000</ele>
        <time>2019-05-23T18:46:39Z</time>
      </trkpt>
      <trkpt lat="35.708898740" lon="-105.902099320">
        <ele>2314.000</ele>
        <time>2019-05-23T18:46:43Z</time>
      </trkpt>
      <trkpt lat="35.708904380" lon="-105.902043550">
        <ele>2314.000</ele>
        <time>2019-05-23T18:46:47Z</time>
      </trkpt>
      <trkpt lat="35.708898790" lon="-105.901990010">
        <ele>2314.000</ele>
        <time>2019-05-23T18:46:51Z</time>
      </trkpt>
      <trkpt lat="35.708918630" lon="-105.901948020">
        <ele>2313.000</ele>
        <time>2019-05-23T18:46:55Z</time>
      </trkpt>
      <trkpt lat="35.708943640" lon="-105.901905920">
        <ele>2311.000</ele>
        <time>2019-05-23T18:47:00Z</time>
      </trkpt>
      <trkpt lat="35.708981880" lon="-105.901872030">
        <ele>2311.000</ele>
        <time>2019-05-23T18:47:04Z</time>
      </trkpt>
      <trkpt lat="35.709013900" lon="-105.901843610">
        <ele>2309.000</ele>
        <time>2019-05-23T18:47:08Z</time>
      </trkpt>
      <trkpt lat="35.709052440" lon="-105.901815480">
        <ele>2308.000</ele>
        <time>2019-05-23T18:47:12Z</time>
      </trkpt>
      <trkpt lat="35.709081190" lon="-105.901779880">
        <ele>2307.000</ele>
        <time>2019-05-23T18:47:16Z</time>
      </trkpt>
      <trkpt lat="35.709117140" lon="-105.901747820">
        <ele>2307.000</ele>
        <time>2019-05-23T18:47:20Z</time>
      </trkpt>
      <trkpt lat="35.709150440" lon="-105.901724690">
        <ele>2307.000</ele>
        <time>2019-05-23T18:47:24Z</time>
      </trkpt>
      <trkpt lat="35.709182650" lon="-105.901703610">
        <ele>2307.000</ele>
        <time>2019-05-23T18:47:27Z</time>
      </trkpt>
      <trkpt lat="35.709212350" lon="-105.901674960">
        <ele>2307.000</ele>
        <time>2019-05-23T18:47:31Z</time>
      </trkpt>
      <trkpt lat="35.709239300" lon="-105.901644870">
        <ele>2307.000</ele>
        <time>2019-05-23T18:47:34Z</time>
      </trkpt>
      <trkpt lat="35.709268090" lon="-105.901607940">
        <ele>2307.000</ele>
        <time>2019-05-23T18:47:38Z</time>
      </trkpt>
      <trkpt lat="35.709294980" lon="-105.901569510">
        <ele>2306.000</ele>
        <time>2019-05-23T18:47:43Z</time>
      </trkpt>
      <trkpt lat="35.709321290" lon="-105.901535370">
        <ele>2305.000</ele>
        <time>2019-05-23T18:47:46Z</time>
      </trkpt>
      <trkpt lat="35.709347150" lon="-105.901503940">
        <ele>2304.000</ele>
        <time>2019-05-23T18:47:51Z</time>
      </trkpt>
      <trkpt lat="35.709380180" lon="-105.901483530">
        <ele>2303.000</ele>
        <time>2019-05-23T18:47:55Z</time>
      </trkpt>
      <trkpt lat="35.709408200" lon="-105.901447060">
        <ele>2302.000</ele>
        <time>2019-05-23T18:47:59Z</time>
      </trkpt>
      <trkpt lat="35.709437830" lon="-105.901412520">
        <ele>2304.000</ele>
        <time>2019-05-23T18:48:02Z</time>
      </trkpt>
      <trkpt lat="35.709473340" lon="-105.901372380">
        <ele>2303.000</ele>
        <time>2019-05-23T18:48:06Z</time>
      </trkpt>
      <trkpt lat="35.709497440" lon="-105.901328510">
        <ele>2303.000</ele>
        <time>2019-05-23T18:48:10Z</time>
      </trkpt>
      <trkpt lat="35.709525260" lon="-105.901292740">
        <ele>2303.000</ele>
        <time>2019-05-23T18:48:15Z</time>
      </trkpt>
      <trkpt lat="35.709551860" lon="-105.901253500">
        <ele>2304.000</ele>
        <time>2019-05-23T18:48:23Z</time>
      </trkpt>
      <trkpt lat="35.709531500" lon="-105.901210280">
        <ele>2306.000</ele>
        <time>2019-05-23T18:48:27Z</time>
      </trkpt>
      <trkpt lat="35.709493620" lon="-105.901193470">
        <ele>2304.000</ele>
        <time>2019-05-23T18:48:32Z</time>
      </trkpt>
      <trkpt lat="35.709461490" lon="-105.901170290">
        <ele>2302.000</ele>
        <time>2019-05-23T18:48:37Z</time>
      </trkpt>
      <trkpt lat="35.709425310" lon="-105.901149350">
        <ele>2301.000</ele>
        <time>2019-05-23T18:48:42Z</time>
      </trkpt>
      <trkpt lat="35.709396730" lon="-105.901121150">
        <ele>2301.000</ele>
        <time>2019-05-23T18:48:46Z</time>
      </trkpt>
      <trkpt lat="35.709367480" lon="-105.901093050">
        <ele>2300.000</ele>
        <time>2019-05-23T18:48:50Z</time>
      </trkpt>
      <trkpt lat="35.709328920" lon="-105.901077960">
        <ele>2301.000</ele>
        <time>2019-05-23T18:48:54Z</time>
      </trkpt>
      <trkpt lat="35.709297820" lon="-105.901050970">
        <ele>2301.000</ele>
        <time>2019-05-23T18:48:58Z</time>
      </trkpt>
      <trkpt lat="35.709260190" lon="-105.901017950">
        <ele>2302.000</ele>
        <time>2019-05-23T18:49:01Z</time>
      </trkpt>
      <trkpt lat="35.709224930" lon="-105.900978340">
        <ele>2303.000</ele>
        <time>2019-05-23T18:49:05Z</time>
      </trkpt>
      <trkpt lat="35.709195760" lon="-105.900942020">
        <ele>2303.000</ele>
        <time>2019-05-23T18:49:09Z</time>
      </trkpt>
      <trkpt lat="35.709176070" lon="-105.900899670">
        <ele>2304.000</ele>
        <time>2019-05-23T18:49:19Z</time>
      </trkpt>
      <trkpt lat="35.709153600" lon="-105.900864420">
        <ele>2304.000</ele>
        <time>2019-05-23T18:49:26Z</time>
      </trkpt>
      <trkpt lat="35.709141890" lon="-105.900820370">
        <ele>2304.000</ele>
        <time>2019-05-23T18:49:31Z</time>
      </trkpt>
      <trkpt lat="35.709145170" lon="-105.900774040">
        <ele>2303.000</ele>
        <time>2019-05-23T18:49:38Z</time>
      </trkpt>
      <trkpt lat="35.709157200" lon="-105.900728780">
        <ele>2304.000</ele>
        <time>2019-05-23T18:49:41Z</time>
      </trkpt>
      <trkpt lat="35.709177470" lon="-105.900676780">
        <ele>2303.000</ele>
        <time>2019-05-23T18:49:45Z</time>
      </trkpt>
      <trkpt lat="35.709206110" lon="-105.900644960">
        <ele>2302.000</ele>
        <time>2019-05-23T18:49:49Z</time>
      </trkpt>
      <trkpt lat="35.709231530" lon="-105.900604290">
        <ele>2302.000</ele>
        <time>2019-05-23T18:49:52Z</time>
      </trkpt>
      <trkpt lat="35.709258510" lon="-105.900574230">
        <ele>2302.000</ele>
        <time>2019-05-23T18:49:55Z</time>
      </trkpt>
      <trkpt lat="35.709283960" lon="-105.900537500">
        <ele>2300.000</ele>
        <time>2019-05-23T18:50:00Z</time>
      </trkpt>
      <trkpt lat="35.709318980" lon="-105.900509430">
        <ele>2297.000</ele>
        <time>2019-05-23T18:50:06Z</time>
      </trkpt>
      <trkpt lat="35.709353410" lon="-105.900490610">
        <ele>2294.000</ele>
        <time>2019-05-23T18:50:12Z</time>
      </trkpt>
      <trkpt lat="35.709389410" lon="-105.900465810">
        <ele>2292.000</ele>
        <time>2019-05-23T18:50:17Z</time>
      </trkpt>
      <trkpt lat="35.709424660" lon="-105.900452250">
        <ele>2291.000</ele>
        <time>2019-05-23T18:50:20Z</time>
      </trkpt>
      <trkpt lat="35.709464940" lon="-105.900408850">
        <ele>2291.000</ele>
        <time>2019-05-23T18:50:24Z</time>
      </trkpt>
      <trkpt lat="35.709498640" lon="-105.900382430">
        <ele>2292.000</ele>
        <time>2019-05-23T18:50:27Z</time>
      </trkpt>
      <trkpt lat="35.709545840" lon="-105.900376030">
        <ele>2291.000</ele>
        <time>2019-05-23T18:50:33Z</time>
      </trkpt>
      <trkpt lat="35.709588800" lon="-105.900391850">
        <ele>2288.000</ele>
        <time>2019-05-23T18:50:44Z</time>
      </trkpt>
      <trkpt lat="35.709635560" lon="-105.900400920">
        <ele>2288.000</ele>
        <time>2019-05-23T18:50:48Z</time>
      </trkpt>
      <trkpt lat="35.709684030" lon="-105.900381600">
        <ele>2288.000</ele>
        <time>2019-05-23T18:50:53Z</time>
      </trkpt>
      <trkpt lat="35.709725690" lon="-105.900370070">
        <ele>2289.000</ele>
        <time>2019-05-23T18:50:56Z</time>
      </trkpt>
      <trkpt lat="35.709765180" lon="-105.900359370">
        <ele>2290.000</ele>
        <time>2019-05-23T18:51:00Z</time>
      </trkpt>
      <trkpt lat="35.709792980" lon="-105.900313940">
        <ele>2291.000</ele>
        <time>2019-05-23T18:51:05Z</time>
      </trkpt>
      <trkpt lat="35.709830340" lon="-105.900306160">
        <ele>2292.000</ele>
        <time>2019-05-23T18:51:08Z</time>
      </trkpt>
      <trkpt lat="35.709871370" lon="-105.900277900">
        <ele>2291.000</ele>
        <time>2019-05-23T18:51:12Z</time>
      </trkpt>
      <trkpt lat="35.709890660" lon="-105.900229820">
        <ele>2292.000</ele>
        <time>2019-05-23T18:51:15Z</time>
      </trkpt>
      <trkpt lat="35.709920670" lon="-105.900196910">
        <ele>2293.000</ele>
        <time>2019-05-23T18:51:20Z</time>
      </trkpt>
      <trkpt lat="35.709955940" lon="-105.900171140">
        <ele>2292.000</ele>
        <time>2019-05-23T18:51:25Z</time>
      </trkpt>
      <trkpt lat="35.709998390" lon="-105.900156130">
        <ele>2290.000</ele>
        <time>2019-05-23T18:51:31Z</time>
      </trkpt>
      <trkpt lat="35.710040210" lon="-105.900156990">
        <ele>2292.000</ele>
        <time>2019-05-23T18:51:34Z</time>
      </trkpt>
      <trkpt lat="35.710083870" lon="-105.900145580">
        <ele>2292.000</ele>
        <time>2019-05-23T18:51:39Z</time>
      </trkpt>
      <trkpt lat="35.710111550" lon="-105.900112870">
        <ele>2292.000</ele>
        <time>2019-05-23T18:51:43Z</time>
      </trkpt>
      <trkpt lat="35.710152500" lon="-105.900103820">
        <ele>2290.000</ele>
        <time>2019-05-23T18:51:47Z</time>
      </trkpt>
      <trkpt lat="35.710185130" lon="-105.900065990">
        <ele>2289.000</ele>
        <time>2019-05-23T18:51:52Z</time>
      </trkpt>
      <trkpt lat="35.710214250" lon="-105.900034510">
        <ele>2285.000</ele>
        <time>2019-05-23T18:51:59Z</time>
      </trkpt>
      <trkpt lat="35.710259390" lon="-105.900047300">
        <ele>2284.000</ele>
        <time>2019-05-23T18:52:06Z</time>
      </trkpt>
      <trkpt lat="35.710316030" lon="-105.900034630">
        <ele>2286.000</ele>
        <time>2019-05-23T18:52:09Z</time>
      </trkpt>
      <trkpt lat="35.710354780" lon="-105.900003500">
        <ele>2288.000</ele>
        <time>2019-05-23T18:52:13Z</time>
      </trkpt>
      <trkpt lat="35.710398680" lon="-105.899988900">
        <ele>2288.000</ele>
        <time>2019-05-23T18:52:16Z</time>
      </trkpt>
      <trkpt lat="35.710440440" lon="-105.899967320">
        <ele>2289.000</ele>
        <time>2019-05-23T18:52:20Z</time>
      </trkpt>
      <trkpt lat="35.710450250" lon="-105.899916530">
        <ele>2289.000</ele>
        <time>2019-05-23T18:52:25Z</time>
      </trkpt>
      <trkpt lat="35.710447250" lon="-105.899865280">
        <ele>2290.000</ele>
        <time>2019-05-23T18:52:28Z</time>
      </trkpt>
      <trkpt lat="35.710442480" lon="-105.899799030">
        <ele>2292.000</ele>
        <time>2019-05-23T18:52:31Z</time>
      </trkpt>
      <trkpt lat="35.710418400" lon="-105.899751140">
        <ele>2291.000</ele>
        <time>2019-05-23T18:52:36Z</time>
      </trkpt>
      <trkpt lat="35.710412820" lon="-105.899700140">
        <ele>2291.000</ele>
        <time>2019-05-23T18:52:41Z</time>
      </trkpt>
      <trkpt lat="35.710405950" lon="-105.899649920">
        <ele>2292.000</ele>
        <time>2019-05-23T18:52:44Z</time>
      </trkpt>
      <trkpt lat="35.710444630" lon="-105.899632920">
        <ele>2291.000</ele>
        <time>2019-05-23T18:53:38Z</time>
      </trkpt>
      <trkpt lat="35.710487690" lon="-105.899646970">
        <ele>2291.000</ele>
        <time>2019-05-23T18:53:43Z</time>
      </trkpt>
      <trkpt lat="35.710524180" lon="-105.899619360">
        <ele>2293.000</ele>
        <time>2019-05-23T18:53:54Z</time>
      </trkpt>
      <trkpt lat="35.710549280" lon="-105.899586540">
        <ele>2293.000</ele>
        <time>2019-05-23T18:54:04Z</time>
      </trkpt>
      <trkpt lat="35.710587990" lon="-105.899596520">
        <ele>2295.000</ele>
        <time>2019-05-23T18:54:28Z</time>
      </trkpt>
      <trkpt lat="35.710565810" lon="-105.899558780">
        <ele>2296.000</ele>
        <time>2019-05-23T18:54:40Z</time>
      </trkpt>
      <trkpt lat="35.710541650" lon="-105.899591840">
        <ele>2294.000</ele>
        <time>2019-05-23T18:54:46Z</time>
      </trkpt>
      <trkpt lat="35.710543620" lon="-105.899584880">
        <ele>2297.000</ele>
        <time>2019-05-23T18:55:42Z</time>
      </trkpt>
    </trkseg>
  </trk>
</gpx>
